Time;durP1;ratioP1;P1;durP2;ratioP2;P2;SDS_P1;SDS_P2;PMS_P1;PMS_P2;Temp;Humidity;BMP_temperature;BMP_pressure;BME280_temperature;BME280_humidity;BME280_pressure;Samples;Min_cycle;Max_cycle;Signal;HPM_P1;HPM_P2
2023/05/03 00:00:07;;;;;;;33.10;7.88;;;;;;;16.44;100.00;96991.78;5109481;28;20078;-54
2023/05/03 00:02:37;;;;;;;34.03;8.73;;;;;;;15.99;100.00;96990.47;5106037;28;20512;-56
2023/05/03 00:05:10;;;;;;;30.00;8.25;;;;;;;16.25;100.00;96985.81;5108760;28;20078;-56
2023/05/03 00:07:42;;;;;;;22.33;8.20;;;;;;;16.48;100.00;96979.78;5101767;28;20612;-52
2023/05/03 00:10:11;;;;;;;33.90;7.78;;;;;;;16.40;100.00;96983.31;5108431;27;20087;-56
2023/05/03 00:12:40;;;;;;;32.13;7.90;;;;;;;16.20;100.00;96990.78;5107245;27;20117;-53
2023/05/03 00:15:11;;;;;;;25.27;7.82;;;;;;;16.03;100.00;96989.13;5106307;27;20471;-56
2023/05/03 00:17:39;;;;;;;24.35;8.15;;;;;;;16.45;100.00;96974.81;5106768;27;20083;-53
2023/05/03 00:20:08;;;;;;;27.23;7.65;;;;;;;16.02;100.00;96980.31;5107533;27;20063;-52
2023/05/03 00:22:36;;;;;;;37.65;7.22;;;;;;;15.90;100.00;96981.66;5108485;28;20550;-60
2023/05/03 00:25:06;;;;;;;12.05;5.60;;;;;;;16.22;100.00;96986.16;5110848;27;20078;-54
2023/05/03 00:27:35;;;;;;;22.65;6.10;;;;;;;15.98;100.00;96989.63;5107441;28;20079;-50
2023/05/03 00:30:04;;;;;;;11.18;5.60;;;;;;;15.80;100.00;97003.09;5108911;27;20538;-57
2023/05/03 00:32:34;;;;;;;25.48;6.95;;;;;;;15.70;100.00;96996.25;5108355;28;20471;-54
2023/05/03 00:35:03;;;;;;;14.80;6.03;;;;;;;15.61;100.00;96996.19;5106608;28;20534;-56
2023/05/03 00:37:31;;;;;;;28.02;7.38;;;;;;;15.65;100.00;96996.69;5108273;28;20091;-56
2023/05/03 00:39:59;;;;;;;15.95;6.07;;;;;;;15.64;100.00;96997.69;5099824;28;20468;-54
2023/05/03 00:42:28;;;;;;;22.60;7.05;;;;;;;15.76;100.00;96988.47;5100448;28;20086;-50
2023/05/03 00:44:56;;;;;;;23.92;7.75;;;;;;;15.71;100.00;96984.63;5104474;28;20095;-54
2023/05/03 00:47:25;;;;;;;25.05;8.50;;;;;;;15.80;100.00;96987.13;5108854;27;20098;-53
2023/05/03 00:49:54;;;;;;;52.17;9.90;;;;;;;15.92;100.00;96984.16;5107859;28;20083;-54
2023/05/03 00:52:23;;;;;;;64.47;10.40;;;;;;;15.61;100.00;96984.72;5107756;28;20542;-55
2023/05/03 00:54:52;;;;;;;34.38;9.40;;;;;;;15.72;100.00;96983.63;5100278;28;20075;-54
2023/05/03 00:57:21;;;;;;;65.13;10.75;;;;;;;16.01;100.00;96983.16;5105552;28;20083;-55
2023/05/03 00:59:50;;;;;;;33.00;8.97;;;;;;;15.74;100.00;96982.47;5101138;28;20464;-49
2023/05/03 01:02:18;;;;;;;79.78;11.73;;;;;;;15.45;100.00;96977.56;5105115;28;20507;-54
2023/05/03 01:04:46;;;;;;;34.17;8.88;;;;;;;15.44;100.00;96984.69;5107455;28;20079;-55
2023/05/03 01:07:23;;;;;;;43.00;8.93;;;;;;;16.04;100.00;96972.19;5111553;28;20090;-55
2023/05/03 01:09:57;;;;;;;26.20;8.00;;;;;;;16.15;100.00;96966.53;5108262;28;20046;-55
2023/05/03 01:12:34;;;;;;;25.20;7.97;;;;;;;16.12;100.00;96966.84;5102252;28;20067;-55
2023/05/03 01:15:08;;;;;;;24.20;16.10;;;;;;;15.72;100.00;96980.97;5107257;28;20040;-55
2023/05/03 01:17:41;;;;;;;18.58;6.00;;;;;;;15.73;100.00;96988.78;5108720;28;20423;-56
2023/05/03 01:20:13;;;;;;;17.27;5.82;;;;;;;15.47;100.00;96980.88;5112259;27;20048;-53
2023/05/03 01:22:47;;;;;;;18.75;6.07;;;;;;;15.39;100.00;96979.03;5110966;28;20090;-55
2023/05/03 01:25:18;;;;;;;17.98;5.55;;;;;;;14.57;100.00;96983.16;5094583;28;20059;-53
2023/05/03 01:27:46;;;;;;;23.85;5.75;;;;;;;14.49;100.00;96983.09;5085164;28;20043;-56
2023/05/03 01:30:15;;;;;;;89.75;58.55;;;;;;;13.81;100.00;96977.56;5112166;28;20102;-51
2023/05/03 01:32:52;;;;;;;30.75;20.60;;;;;;;14.59;100.00;96985.63;5110442;27;20574;-55
2023/05/03 01:35:26;;;;;;;21.58;19.35;;;;;;;15.13;100.00;96984.41;5100929;28;23450;-54
2023/05/03 01:37:55;;;;;;;22.23;12.02;;;;;;;14.85;100.00;96997.06;5109663;27;20102;-53
2023/05/03 01:40:26;;;;;;;26.58;6.70;;;;;;;15.93;100.00;96993.78;5104218;27;20091;-58
2023/05/03 01:42:55;;;;;;;100.57;61.75;;;;;;;14.76;100.00;96992.69;5101548;28;20047;-52
2023/05/03 01:45:25;;;;;;;21.30;7.50;;;;;;;15.95;100.00;96986.47;5098908;28;20074;-55
2023/05/03 01:47:53;;;;;;;31.73;7.47;;;;;;;14.79;100.00;96987.09;5105774;28;20079;-49
2023/05/03 01:50:22;;;;;;;22.10;6.95;;;;;;;15.43;100.00;96985.69;5104751;27;20102;-55
2023/05/03 01:52:52;;;;;;;17.00;7.03;;;;;;;15.10;100.00;96973.28;5095071;28;20486;-55
2023/05/03 01:55:20;;;;;;;28.70;6.35;;;;;;;15.51;100.00;96981.38;5096841;27;20890;-55
2023/05/03 01:57:50;;;;;;;24.45;7.30;;;;;;;16.07;100.00;96959.38;5098953;27;20079;-59
2023/05/03 02:00:18;;;;;;;45.50;7.90;;;;;;;15.55;100.00;96972.09;5101767;27;20613;-51
2023/05/03 02:02:47;;;;;;;21.60;7.25;;;;;;;16.19;100.00;96967.84;5097603;27;20143;-55
2023/05/03 02:05:15;;;;;;;29.90;7.20;;;;;;;16.28;100.00;96969.53;5099268;28;20090;-59
2023/05/03 02:07:44;;;;;;;46.80;7.03;;;;;;;16.56;100.00;96969.16;5105276;27;20092;-57
2023/05/03 02:10:13;;;;;;;25.38;6.90;;;;;;;16.13;100.00;96977.31;5100087;27;20562;-56
2023/05/03 02:12:42;;;;;;;23.95;5.90;;;;;;;16.05;100.00;96979.16;5101941;28;20138;-55
2023/05/03 02:15:12;;;;;;;27.10;6.55;;;;;;;15.62;100.00;96986.38;5102747;27;20078;-58
2023/05/03 02:17:42;;;;;;;;;;;;;;;16.00;100.00;96971.69;5097890;27;20558;-56
2023/05/03 02:20:11;;;;;;;13.20;5.22;;;;;;;15.54;100.00;96983.72;5102251;27;20014;-54
2023/05/03 02:22:40;;;;;;;20.27;6.00;;;;;;;15.08;100.00;96976.13;5110699;28;20082;-55
2023/05/03 02:25:09;;;;;;;16.23;4.70;;;;;;;15.53;100.00;96979.41;5107587;28;20173;-53
2023/05/03 02:27:37;;;;;;;18.48;5.47;;;;;;;15.58;100.00;96977.06;5106033;27;20561;-56
2023/05/03 02:30:07;;;;;;;15.20;4.95;;;;;;;15.74;100.00;96985.13;5107853;27;20082;-55
2023/05/03 02:32:37;;;;;;;11.05;4.78;;;;;;;15.54;100.00;96989.03;5109832;27;20083;-52
2023/05/03 02:35:07;;;;;;;9.70;4.55;;;;;;;15.20;100.00;96985.44;5095941;28;20130;-60
2023/05/03 02:37:36;;;;;;;18.50;6.60;;;;;;;15.29;100.00;96983.66;5104595;28;20089;-55
2023/05/03 02:40:06;;;;;;;19.48;6.15;;;;;;;15.55;100.00;96986.19;5098162;28;20165;-58
2023/05/03 02:42:34;;;;;;;50.58;24.83;;;;;;;13.88;100.00;96987.41;5097399;28;20482;-54
2023/05/03 02:45:03;;;;;;;15.38;6.00;;;;;;;15.55;100.00;96985.38;5105798;28;20950;-56
2023/05/03 02:47:31;;;;;;;10.30;5.55;;;;;;;14.94;100.00;96982.03;5098885;27;20087;-50
2023/05/03 02:50:01;;;;;;;14.57;6.50;;;;;;;15.48;100.00;96977.22;5097216;28;20102;-54
2023/05/03 02:52:30;;;;;;;14.85;6.50;;;;;;;15.26;100.00;96985.81;5094641;27;20085;-50
2023/05/03 02:54:58;;;;;;;9.40;5.75;;;;;;;14.89;100.00;96979.00;5102818;28;20079;-56
2023/05/03 02:57:27;;;;;;;27.13;14.77;;;;;;;14.33;100.00;96990.94;5093722;28;20099;-55
2023/05/03 02:59:55;;;;;;;14.15;6.82;;;;;;;15.57;100.00;96984.22;5103297;28;20101;-55
2023/05/03 03:02:24;;;;;;;19.38;13.75;;;;;;;14.74;100.00;96983.25;5104530;28;20110;-55
2023/05/03 03:04:52;;;;;;;63.17;49.33;;;;;;;14.24;100.00;96993.50;5102010;27;20083;-54
2023/05/03 03:07:22;;;;;;;86.50;58.22;;;;;;;14.71;100.00;96990.53;5097983;27;20488;-50
2023/05/03 03:09:50;;;;;;;119.47;67.43;;;;;;;14.88;100.00;96995.94;5095085;27;20078;-50
2023/05/03 03:12:18;;;;;;;20.23;7.28;;;;;;;14.92;100.00;96999.94;5097300;28;20487;-56
2023/05/03 03:14:46;;;;;;;73.80;46.83;;;;;;;14.25;100.00;96994.34;5096685;27;21909;-55
2023/05/03 03:17:15;;;;;;;195.48;94.88;;;;;;;14.30;100.00;97000.00;5102077;27;20641;-56
2023/05/03 03:19:43;;;;;;;129.68;67.90;;;;;;;14.26;100.00;96996.00;5093943;27;20079;-54
2023/05/03 03:22:11;;;;;;;146.60;79.20;;;;;;;14.66;100.00;96989.34;5095963;28;20091;-55
2023/05/03 03:24:41;;;;;;;157.73;86.75;;;;;;;14.79;100.00;96994.22;5097364;28;20536;-58
2023/05/03 03:27:09;;;;;;;140.50;73.97;;;;;;;14.82;100.00;96989.44;5098425;28;20095;-54
2023/05/03 03:29:37;;;;;;;161.43;87.90;;;;;;;14.37;100.00;96986.97;5102406;27;20083;-56
2023/05/03 03:32:06;;;;;;;152.50;84.55;;;;;;;14.80;100.00;96983.47;5102816;27;20079;-55
2023/05/03 03:34:34;;;;;;;156.48;81.03;;;;;;;14.74;100.00;96984.09;5103219;28;20079;-53
2023/05/03 03:37:04;;;;;;;30.45;9.57;;;;;;;15.41;100.00;96984.19;5106327;27;20067;-52
2023/05/03 03:39:32;;;;;;;21.98;7.68;;;;;;;15.32;100.00;96985.16;5100707;28;20067;-57
2023/05/03 03:42:02;;;;;;;23.55;6.95;;;;;;;15.95;100.00;96974.00;5105013;27;20075;-55
2023/05/03 03:44:31;;;;;;;25.38;8.15;;;;;;;14.86;100.00;96987.28;5103775;28;20074;-56
2023/05/03 03:46:59;;;;;;;19.85;9.20;;;;;;;14.43;100.00;96987.19;5102087;27;20062;-55
2023/05/03 03:49:28;;;;;;;30.40;10.88;;;;;;;14.63;100.00;96987.00;5101017;28;20071;-54
2023/05/03 03:51:56;;;;;;;26.58;9.18;;;;;;;14.77;100.00;96998.88;5105783;27;20071;-55
2023/05/03 03:54:25;;;;;;;19.08;8.25;;;;;;;15.29;100.00;96988.16;5094546;27;20064;-57
2023/05/03 03:56:53;;;;;;;32.33;15.38;;;;;;;14.80;100.00;96990.59;5097063;28;20084;-58
2023/05/03 03:59:23;;;;;;;30.10;22.90;;;;;;;15.48;100.00;96989.69;5102454;27;20079;-54
2023/05/03 04:01:52;;;;;;;85.97;50.30;;;;;;;14.73;100.00;96987.72;5094196;27;20139;-56
2023/05/03 04:04:20;;;;;;;88.97;64.25;;;;;;;14.62;100.00;96999.44;5099613;27;20075;-55
2023/05/03 04:06:53;;;;;;;82.00;53.92;;;;;;;15.45;100.00;96998.84;5098925;28;20419;-58
2023/05/03 04:09:23;;;;;;;124.80;77.10;;;;;;;14.71;100.00;96995.84;5084571;28;20097;-54
2023/05/03 04:11:52;;;;;;;110.13;64.38;;;;;;;14.53;100.00;97002.22;5100207;27;20539;-57
2023/05/03 04:14:20;;;;;;;121.25;68.63;;;;;;;14.42;100.00;96996.13;5094829;28;20071;-56
2023/05/03 04:16:50;;;;;;;135.00;80.90;;;;;;;15.74;100.00;97005.56;5096660;28;20087;-54
2023/05/03 04:19:20;;;;;;;136.43;75.70;;;;;;;14.93;100.00;97014.88;5102576;27;20098;-56
2023/05/03 04:21:49;;;;;;;160.43;92.65;;;;;;;14.93;100.00;97010.41;5099482;28;20419;-59
2023/05/03 04:24:17;;;;;;;136.48;77.60;;;;;;;15.12;100.00;97009.31;5100437;28;20083;-55
2023/05/03 04:26:46;;;;;;;138.35;81.75;;;;;;;15.46;100.00;97011.13;5099910;28;20114;-56
2023/05/03 04:29:14;;;;;;;147.15;81.75;;;;;;;15.73;100.00;97011.88;5098115;27;20102;-53
2023/05/03 04:31:42;;;;;;;143.88;78.82;;;;;;;15.40;100.00;97022.38;5104639;27;20083;-57
2023/05/03 04:34:14;;;;;;;151.90;81.60;;;;;;;15.95;100.00;97016.56;5110010;27;20075;-56
2023/05/03 04:36:44;;;;;;;156.40;84.88;;;;;;;14.97;100.00;97021.56;5107445;28;20086;-52
2023/05/03 04:39:12;;;;;;;159.88;86.53;;;;;;;15.01;100.00;97030.88;5100341;28;20502;-56
2023/05/03 04:41:41;;;;;;;163.18;99.50;;;;;;;15.50;100.00;97025.75;5094874;28;20169;-54
2023/05/03 04:44:09;;;;;;;151.23;85.35;;;;;;;15.62;100.00;97028.94;5099653;27;20114;-56
2023/05/03 04:46:38;;;;;;;145.63;77.25;;;;;;;16.01;100.00;97025.72;5094244;28;20094;-61
2023/05/03 04:49:06;;;;;;;141.20;69.75;;;;;;;15.92;100.00;97032.84;5102484;28;20086;-58
2023/05/03 04:51:36;;;;;;;139.52;72.72;;;;;;;16.73;100.00;97029.38;5101360;28;20087;-55
2023/05/03 04:54:05;;;;;;;156.63;79.53;;;;;;;15.47;100.00;97035.88;5098701;28;20105;-53
2023/05/03 04:56:34;;;;;;;148.75;79.05;;;;;;;15.88;100.00;97031.53;5100767;28;20554;-56
2023/05/03 04:59:04;;;;;;;153.38;84.97;;;;;;;16.03;100.00;97034.34;5092678;28;20079;-53
2023/05/03 05:01:33;;;;;;;160.83;90.30;;;;;;;16.06;100.00;97042.00;5093594;28;20090;-53
2023/05/03 05:04:02;;;;;;;150.23;77.05;;;;;;;15.99;100.00;97035.69;5102735;28;20086;-56
2023/05/03 05:06:30;;;;;;;155.73;84.25;;;;;;;16.09;100.00;97047.84;5098155;28;20083;-53
2023/05/03 05:09:00;;;;;;;160.65;89.30;;;;;;;17.13;100.00;97032.13;5097797;28;20246;-53
2023/05/03 05:11:28;;;;;;;140.10;72.90;;;;;;;16.51;100.00;97038.84;5100414;28;20098;-56
2023/05/03 05:13:57;;;;;;;122.57;75.15;;;;;;;16.19;100.00;97053.00;5095235;28;20086;-54
2023/05/03 05:16:25;;;;;;;138.73;78.68;;;;;;;16.27;100.00;97046.84;5093684;28;20177;-55
2023/05/03 05:18:53;;;;;;;163.95;87.28;;;;;;;16.26;100.00;97043.38;5097737;28;20146;-53
2023/05/03 05:21:22;;;;;;;173.68;91.60;;;;;;;16.11;100.00;97039.72;5095484;28;20079;-58
2023/05/03 05:23:50;;;;;;;164.95;91.18;;;;;;;16.81;100.00;97033.88;5093114;28;20106;-57
2023/05/03 05:26:20;;;;;;;131.75;74.57;;;;;;;17.09;100.00;97044.97;5098107;28;20155;-57
2023/05/03 05:28:48;;;;;;;164.33;87.53;;;;;;;17.16;100.00;97053.09;5093537;28;20064;-57
2023/05/03 05:31:17;;;;;;;128.80;68.55;;;;;;;17.63;100.00;97049.59;5095876;28;20524;-56
2023/05/03 05:33:46;;;;;;;39.67;26.45;;;;;;;17.71;100.00;97047.69;5103606;28;20550;-54
2023/05/03 05:36:14;;;;;;;85.60;50.60;;;;;;;17.77;100.00;97054.22;5107105;28;20074;-53
2023/05/03 05:38:43;;;;;;;104.93;56.72;;;;;;;17.90;100.00;97056.31;5107869;28;20135;-57
2023/05/03 05:41:11;;;;;;;54.75;15.73;;;;;;;19.21;100.00;97051.53;5100349;28;20079;-55
2023/05/03 05:43:41;;;;;;;37.75;11.10;;;;;;;19.32;100.00;97055.59;5096416;28;20091;-56
2023/05/03 05:46:09;;;;;;;36.93;11.73;;;;;;;19.26;100.00;97050.16;5098547;28;20113;-57
2023/05/03 05:48:38;;;;;;;26.70;11.68;;;;;;;19.56;100.00;97048.28;5095100;28;20552;-55
2023/05/03 05:51:07;;;;;;;46.17;11.85;;;;;;;19.61;100.00;97060.09;5098477;28;20094;-60
2023/05/03 05:53:36;;;;;;;25.70;10.90;;;;;;;19.48;100.00;97059.06;5095877;28;20067;-59
2023/05/03 05:56:05;;;;;;;29.88;12.35;;;;;;;19.21;100.00;97058.75;5096848;28;20134;-53
2023/05/03 05:58:33;;;;;;;44.55;13.70;;;;;;;19.41;100.00;97059.03;5097581;28;20075;-57
2023/05/03 06:01:04;;;;;;;61.15;13.73;;;;;;;19.52;100.00;97055.03;5093478;28;20109;-57
2023/05/03 06:03:33;;;;;;;54.83;15.00;;;;;;;19.59;100.00;97055.94;5100900;28;20083;-58
2023/05/03 06:06:01;;;;;;;37.17;13.73;;;;;;;19.66;100.00;97062.25;5104272;28;20087;-55
2023/05/03 06:08:30;;;;;;;43.75;15.18;;;;;;;19.51;100.00;97062.25;5098510;28;20075;-59
2023/05/03 06:10:58;;;;;;;51.67;14.68;;;;;;;19.71;100.00;97057.16;5110007;27;20086;-56
2023/05/03 06:13:27;;;;;;;70.47;16.13;;;;;;;19.76;100.00;97060.09;5108658;27;20091;-60
2023/05/03 06:15:55;;;;;;;52.33;15.15;;;;;;;19.57;100.00;97066.81;5095282;28;20152;-57
2023/05/03 06:18:25;;;;;;;80.95;18.48;;;;;;;19.63;100.00;97068.78;5098646;28;20072;-56
2023/05/03 06:20:53;;;;;;;29.80;13.43;;;;;;;19.02;100.00;97072.63;5099278;28;20489;-55
2023/05/03 06:23:21;;;;;;;81.00;16.58;;;;;;;18.86;100.00;97073.66;5098159;27;20102;-55
2023/05/03 06:25:50;;;;;;;48.35;16.00;;;;;;;19.32;100.00;97068.97;5095505;28;20083;-53
2023/05/03 06:28:18;;;;;;;34.20;15.25;;;;;;;19.10;100.00;97075.25;5103323;27;20090;-57
2023/05/03 06:30:49;;;;;;;35.92;15.77;;;;;;;18.57;100.00;97077.84;5096817;28;20087;-59
2023/05/03 06:33:17;;;;;;;46.47;20.20;;;;;;;19.55;100.00;97079.56;5095046;28;20093;-55
2023/05/03 06:35:47;;;;;;;41.78;16.48;;;;;;;18.90;100.00;97077.59;5100179;28;20168;-54
2023/05/03 06:38:15;;;;;;;38.07;17.50;;;;;;;19.17;100.00;97085.00;5100750;28;20448;-51
2023/05/03 06:40:44;;;;;;;61.75;20.98;;;;;;;19.30;100.00;97075.50;5100860;28;20082;-52
2023/05/03 06:43:13;;;;;;;41.78;20.30;;;;;;;19.51;100.00;97080.97;5100271;27;20086;-50
2023/05/03 06:45:42;;;;;;;38.28;21.48;;;;;;;19.98;100.00;97079.72;5101707;27;20090;-53
2023/05/03 06:48:10;;;;;;;50.05;21.60;;;;;;;19.18;100.00;97078.66;5101942;27;20072;-50
2023/05/03 06:50:39;;;;;;;40.33;19.52;;;;;;;19.11;100.00;97075.06;5104151;27;20083;-52
2023/05/03 06:53:10;;;;;;;35.88;19.90;;;;;;;19.52;100.00;97079.94;5105336;28;20086;-58
2023/05/03 06:55:39;;;;;;;34.67;20.60;;;;;;;19.66;100.00;97081.81;5105811;27;20553;-54
2023/05/03 06:58:08;;;;;;;32.63;17.20;;;;;;;19.26;100.00;97088.41;5102838;27;20092;-58
2023/05/03 07:00:38;;;;;;;39.10;20.85;;;;;;;19.39;100.00;97082.44;5107945;28;20083;-54
2023/05/03 07:03:07;;;;;;;33.00;19.13;;;;;;;19.99;100.00;97081.34;5104657;28;20083;-53
2023/05/03 07:05:35;;;;;;;32.53;19.48;;;;;;;20.00;100.00;97080.34;5100767;28;20142;-56
2023/05/03 07:08:04;;;;;;;34.72;18.83;;;;;;;20.18;100.00;97081.78;5100848;28;20531;-56
2023/05/03 07:10:34;;;;;;;40.35;21.27;;;;;;;19.82;100.00;97085.28;5100042;28;20090;-59
2023/05/03 07:13:02;;;;;;;38.55;20.73;;;;;;;20.42;100.00;97078.72;5098854;28;20094;-52
2023/05/03 07:15:31;;;;;;;46.22;23.77;;;;;;;20.17;100.00;97069.41;5101719;28;20075;-55
2023/05/03 07:18:00;;;;;;;38.50;21.70;;;;;;;20.40;100.00;97075.41;5100785;28;20087;-54
2023/05/03 07:20:28;;;;;;;39.95;22.17;;;;;;;20.88;100.00;97061.41;5102702;28;20681;-55
2023/05/03 07:22:57;;;;;;;36.85;19.10;;;;;;;20.55;100.00;97076.22;5102399;28;20083;-57
2023/05/03 07:25:26;;;;;;;40.47;21.58;;;;;;;20.79;100.00;97066.94;5105029;28;20059;-53
2023/05/03 07:27:55;;;;;;;37.53;20.73;;;;;;;20.83;100.00;97062.00;5105355;27;20090;-51
2023/05/03 07:30:24;;;;;;;39.80;22.47;;;;;;;20.03;100.00;97069.28;5101742;28;20089;-56
2023/05/03 07:32:53;;;;;;;38.88;22.63;;;;;;;19.26;100.00;97064.34;5105547;28;20082;-53
2023/05/03 07:35:22;;;;;;;37.58;22.33;;;;;;;19.62;100.00;97064.44;5102790;27;20079;-53
2023/05/03 07:37:50;;;;;;;37.50;20.77;;;;;;;20.60;100.00;97056.88;5103189;28;20087;-53
2023/05/03 07:40:18;;;;;;;42.67;21.48;;;;;;;20.48;100.00;97061.91;5104824;27;20083;-54
2023/05/03 07:42:47;;;;;;;35.58;19.90;;;;;;;20.57;100.00;97066.13;5100354;28;20613;-55
2023/05/03 07:45:17;;;;;;;32.85;20.30;;;;;;;21.10;100.00;97058.50;5105287;28;20098;-53
2023/05/03 07:47:45;;;;;;;36.88;20.80;;;;;;;21.93;94.90;97058.53;5085599;28;20040;-56
2023/05/03 07:50:14;;;;;;;37.80;22.02;;;;;;;22.25;86.09;97053.47;5104987;28;20083;-54
2023/05/03 07:52:42;;;;;;;40.42;22.95;;;;;;;21.74;87.89;97061.94;5109962;27;20078;-53
2023/05/03 07:55:10;;;;;;;38.47;23.13;;;;;;;22.23;84.88;97055.53;5105630;28;20075;-52
2023/05/03 07:57:39;;;;;;;39.38;24.63;;;;;;;21.72;86.79;97056.78;5106375;27;20075;-55
2023/05/03 08:00:11;;;;;;;42.70;24.80;;;;;;;21.84;93.39;97062.41;5103200;28;20522;-55
2023/05/03 08:02:41;;;;;;;34.50;21.48;;;;;;;21.29;92.48;97053.44;5096519;28;20087;-52
2023/05/03 08:05:13;;;;;;;36.33;22.35;;;;;;;21.64;88.87;97048.91;5103823;27;20119;-53
2023/05/03 08:07:42;;;;;;;36.78;20.30;;;;;;;21.90;87.57;97048.19;5089894;28;20077;-51
2023/05/03 08:10:11;;;;;;;37.65;22.73;;;;;;;21.72;93.53;97046.06;5099768;28;20091;-54
2023/05/03 08:12:39;;;;;;;38.90;22.98;;;;;;;22.08;83.98;97049.47;5103740;28;20082;-56
2023/05/03 08:15:08;;;;;;;38.83;23.05;;;;;;;21.96;81.39;97051.94;5098129;28;20645;-56
2023/05/03 08:17:42;;;;;;;36.72;23.48;;;;;;;22.24;82.33;97046.44;5098578;27;20085;-59
2023/05/03 08:20:11;;;;;;;38.22;22.23;;;;;;;22.20;81.86;97054.09;5099116;28;20138;-54
2023/05/03 08:22:40;;;;;;;37.63;22.38;;;;;;;22.81;77.28;97039.63;5101196;28;20565;-52
2023/05/03 08:25:09;;;;;;;33.38;21.27;;;;;;;23.09;71.84;97046.69;5099088;27;20098;-50
2023/05/03 08:27:37;;;;;;;33.17;21.27;;;;;;;21.83;79.30;97065.31;5097909;27;20546;-54
2023/05/03 08:30:08;;;;;;;34.42;21.30;;;;;;;21.88;82.20;97055.59;5098462;27;20082;-55
2023/05/03 08:32:36;;;;;;;37.47;23.05;;;;;;;21.40;90.14;97052.09;5099781;27;20079;-54
2023/05/03 08:35:07;;;;;;;33.00;20.73;;;;;;;21.38;90.38;97052.28;5102300;28;20086;-59
2023/05/03 08:37:39;;;;;;;36.22;23.02;;;;;;;20.94;99.35;97060.66;5101011;27;20138;-55
2023/05/03 08:40:10;;;;;;;37.95;24.95;;;;;;;21.31;93.36;97054.09;5099270;28;20086;-58
2023/05/03 08:42:40;;;;;;;34.70;22.08;;;;;;;21.07;99.50;97061.56;5101045;28;20534;-58
2023/05/03 08:45:13;;;;;;;35.72;22.85;;;;;;;21.09;93.55;97054.16;5101074;27;20091;-54
2023/05/03 08:47:43;;;;;;;38.13;24.02;;;;;;;21.90;91.16;97047.34;5103117;28;20841;-57
2023/05/03 08:50:15;;;;;;;35.38;22.67;;;;;;;20.84;97.38;97060.97;5106063;27;20091;-56
2023/05/03 08:52:44;;;;;;;37.88;23.55;;;;;;;20.93;100.00;97056.31;5104418;27;20094;-55
2023/05/03 08:55:12;;;;;;;35.20;21.52;;;;;;;21.43;97.73;97049.81;5101489;28;20094;-55
2023/05/03 08:57:41;;;;;;;40.38;23.63;;;;;;;21.31;99.50;97056.78;5101594;28;20531;-52
2023/05/03 09:00:11;;;;;;;37.38;22.88;;;;;;;20.47;100.00;97075.47;5099839;28;20110;-51
2023/05/03 09:02:40;;;;;;;38.28;21.48;;;;;;;21.13;100.00;97061.78;5099341;28;20083;-56
2023/05/03 09:05:37;;;;;;;36.17;24.48;;;;;;;21.24;94.66;97062.09;5098424;28;20082;-54
2023/05/03 09:08:08;;;;;;;34.13;21.92;;;;;;;22.35;82.12;97064.66;5092316;28;20098;-54
2023/05/03 09:10:38;;;;;;;35.25;21.10;;;;;;;22.03;85.08;97064.34;5097529;28;20079;-52
2023/05/03 09:13:07;;;;;;;31.48;21.08;;;;;;;21.57;86.64;97066.81;5100018;28;20067;-54
2023/05/03 09:15:36;;;;;;;33.17;21.70;;;;;;;21.94;83.13;97064.72;5097269;28;20101;-56
2023/05/03 09:18:12;;;;;;;32.17;22.45;;;;;;;21.75;84.11;97079.75;5103427;28;20071;-55
2023/05/03 09:20:50;;;;;;;36.60;22.70;;;;;;;22.53;80.70;97072.09;5103812;28;20098;-57
2023/05/03 09:23:20;;;;;;;33.60;22.52;;;;;;;22.58;76.77;97075.03;5098125;28;20079;-58
2023/05/03 09:25:50;;;;;;;30.77;18.67;;;;;;;21.84;91.23;97075.84;5096567;28;20082;-56
2023/05/03 09:28:19;;;;;;;29.42;21.55;;;;;;;21.18;91.58;97083.50;5094435;28;20514;-56
2023/05/03 09:30:49;;;;;;;33.43;23.73;;;;;;;21.16;89.24;97083.69;5101174;28;20093;-51
2023/05/03 09:33:28;;;;;;;32.45;22.65;;;;;;;21.73;81.62;97073.72;5098654;28;20687;-60
2023/05/03 09:35:59;;;;;;;31.55;22.13;;;;;;;23.17;74.03;97071.53;5101621;28;20094;-53
2023/05/03 09:38:29;;;;;;;37.65;24.35;;;;;;;21.35;86.01;97073.31;5099117;28;20526;-56
2023/05/03 09:40:57;;;;;;;29.33;20.37;;;;;;;22.75;77.86;97072.75;5101507;27;20231;-56
2023/05/03 09:43:26;;;;;;;34.10;21.65;;;;;;;22.10;80.89;97075.09;5102526;27;20091;-56
2023/05/03 09:46:07;;;;;;;31.42;21.17;;;;;;;23.08;69.41;97069.25;5104740;27;20098;-54
2023/05/03 09:48:36;;;;;;;32.10;21.48;;;;;;;23.72;63.42;97067.69;5108133;27;20090;-58
2023/05/03 09:51:06;;;;;;;32.70;22.58;;;;;;;23.86;63.64;97066.59;5106822;27;20102;-52
2023/05/03 09:53:36;;;;;;;31.50;22.65;;;;;;;23.88;64.61;97065.34;5101536;27;20494;-53
2023/05/03 09:56:07;;;;;;;33.97;23.70;;;;;;;23.55;64.44;97073.50;5105606;28;20079;-58
2023/05/03 09:58:36;;;;;;;34.65;23.83;;;;;;;24.06;60.97;97066.50;5105342;27;20086;-53
2023/05/03 10:01:04;;;;;;;32.03;22.05;;;;;;;23.91;62.09;97070.28;5104969;28;20627;-58
2023/05/03 10:03:39;;;;;;;30.13;20.67;;;;;;;23.48;65.90;97070.00;5103629;28;21997;-51
2023/05/03 10:06:17;;;;;;;34.10;23.05;;;;;;;23.54;67.86;97071.03;5104434;27;20156;-55
2023/05/03 10:08:49;;;;;;;32.30;22.85;;;;;;;23.76;67.83;97066.22;5112230;27;20078;-59
2023/05/03 10:11:18;;;;;;;36.35;25.13;;;;;;;22.95;71.37;97068.25;5109501;27;20039;-53
2023/05/03 10:13:46;;;;;;;32.25;22.80;;;;;;;22.86;71.77;97061.38;5109460;28;20090;-53
2023/05/03 10:16:21;;;;;;;32.58;22.65;;;;;;;23.61;64.95;97058.38;5109910;28;20098;-53
2023/05/03 10:18:54;;;;;;;34.45;23.58;;;;;;;23.59;63.61;97053.19;5109974;28;20083;-54
2023/05/03 10:21:32;;;;;;;31.63;21.75;;;;;;;23.71;63.95;97057.94;5107570;28;20087;-57
2023/05/03 10:24:11;;;;;;;33.40;22.38;;;;;;;24.85;56.21;97051.69;5107133;27;20094;-54
2023/05/03 10:26:41;;;;;;;33.83;24.33;;;;;;;24.28;58.25;97054.34;5104713;27;20089;-55
2023/05/03 10:29:52;;;;;;;33.75;24.10;;;;;;;25.17;55.47;97047.06;5105495;27;20087;-61
2023/05/03 10:32:41;;;;;;;31.27;22.73;;;;;;;25.65;51.71;97045.50;5097935;27;20095;-59
2023/05/03 10:35:13;;;;;;;29.27;21.73;;;;;;;25.37;50.91;97038.75;5104507;27;20090;-54
2023/05/03 10:37:44;;;;;;;30.08;22.60;;;;;;;25.67;50.42;97044.25;5106124;27;20691;-57
2023/05/03 10:40:14;;;;;;;32.28;23.60;;;;;;;26.43;48.50;97042.00;5109700;28;20087;-57
2023/05/03 10:42:50;;;;;;;32.00;24.58;;;;;;;26.21;50.54;97037.09;5105636;27;20083;-60
2023/05/03 10:45:24;;;;;;;34.70;26.08;;;;;;;26.27;49.86;97041.59;5100467;27;20067;-59
2023/05/03 10:48:23;;;;;;;36.13;28.05;;;;;;;24.45;54.20;97046.59;5100389;27;20083;-59
2023/05/03 10:50:51;;;;;;;31.88;25.02;;;;;;;25.74;51.17;97039.59;5096557;27;20090;-52
2023/05/03 10:53:42;;;;;;;34.28;27.40;;;;;;;26.00;48.76;97041.13;5100490;27;20079;-57
2023/05/03 10:56:11;;;;;;;36.33;26.40;;;;;;;27.33;45.65;97030.97;5100961;27;20079;-57
2023/05/03 10:58:42;;;;;;;32.40;23.77;;;;;;;26.12;47.87;97033.09;5103161;27;20200;-61
2023/05/03 11:01:12;;;;;;;32.67;24.98;;;;;;;27.45;44.47;97029.03;5101226;27;22539;-59
2023/05/03 11:03:46;;;;;;;33.50;25.30;;;;;;;27.38;45.43;97030.22;5100254;27;20475;-60
2023/05/03 11:06:32;;;;;;;32.38;24.92;;;;;;;27.61;44.89;97024.78;5103143;27;20086;-59
2023/05/03 11:09:03;;;;;;;31.75;23.48;;;;;;;26.86;47.45;97020.09;5106859;27;20063;-58
2023/05/03 11:11:32;;;;;;;31.83;24.10;;;;;;;27.51;44.47;97019.16;5100133;27;20086;-60
2023/05/03 11:14:00;;;;;;;32.70;22.45;;;;;;;27.59;44.45;97017.94;5103589;28;20529;-58
2023/05/03 11:16:29;;;;;;;29.02;22.02;;;;;;;27.58;44.12;97019.84;5100484;27;20079;-57
2023/05/03 11:18:59;;;;;;;30.07;22.97;;;;;;;27.68;44.27;97016.50;5104221;27;20083;-56
2023/05/03 11:21:27;;;;;;;29.92;20.73;;;;;;;27.23;46.58;97019.09;5107053;28;20087;-59
2023/05/03 11:23:58;;;;;;;24.67;19.40;;;;;;;27.20;43.91;97014.94;5106687;28;20083;-58